New Lenox, Illinois
Current Conditions -  °F | °C
As of 9:15 PM on Thursday 27 Nov 2014 (Local Time) from KLOT Reporting Station
Light Snow Light Snow  
Wind Chill:   Ceiling: Unl
Heat Index: 16°   Visibility: 10mi
Dew Point: 12°   Wind: 6mph
Humidity: 84%   Direction: 280°W
Pressure: 30.41"   Gusts: NA
Location:  41.51°N, 87.97°W
Report Text: KLOT 280315Z AUTO 28005KT 10SM -SN CLR M09/M11 A3041 RMK AO2 T10891111
Loading
Personal Weather Stations






























Interactive Weather Map New forecast layout! Learn more

10-Day Weather Forecast

Advertisements
Track Severe Weather on mobile